sensor_id;sensor_type;location;lat;lon;timestamp;P1;durP1;ratioP1;P2;durP2;ratioP2
6580;SDS011;3324;50.796;7.228;2022-08-05T00:01:00;15.10;;;14.10;;
6580;SDS011;3324;50.796;7.228;2022-08-05T00:03:26;15.60;;;14.50;;
6580;SDS011;3324;50.796;7.228;2022-08-05T00:05:51;15.93;;;14.63;;
6580;SDS011;3324;50.796;7.228;2022-08-05T00:08:17;15.20;;;14.20;;
6580;SDS011;3324;50.796;7.228;2022-08-05T00:10:43;15.00;;;14.00;;
6580;SDS011;3324;50.796;7.228;2022-08-05T00:13:09;16.00;;;14.80;;
6580;SDS011;3324;50.796;7.228;2022-08-05T00:15:35;16.70;;;15.30;;
6580;SDS011;3324;50.796;7.228;2022-08-05T00:18:00;16.00;;;14.90;;
6580;SDS011;3324;50.796;7.228;2022-08-05T00:20:26;15.80;;;14.70;;
6580;SDS011;3324;50.796;7.228;2022-08-05T00:22:52;16.10;;;14.80;;
6580;SDS011;3324;50.796;7.228;2022-08-05T00:25:17;15.80;;;14.70;;
6580;SDS011;3324;50.796;7.228;2022-08-05T00:27:43;15.10;;;14.10;;
6580;SDS011;3324;50.796;7.228;2022-08-05T00:30:08;16.50;;;15.20;;
6580;SDS011;3324;50.796;7.228;2022-08-05T00:32:34;16.05;;;14.85;;
6580;SDS011;3324;50.796;7.228;2022-08-05T00:35:00;15.50;;;14.40;;
6580;SDS011;3324;50.796;7.228;2022-08-05T00:37:26;15.60;;;14.50;;
6580;SDS011;3324;50.796;7.228;2022-08-05T00:39:51;15.35;;;14.35;;
6580;SDS011;3324;50.796;7.228;2022-08-05T00:42:30;15.10;;;14.10;;
6580;SDS011;3324;50.796;7.228;2022-08-05T00:44:56;15.57;;;14.47;;
6580;SDS011;3324;50.796;7.228;2022-08-05T00:47:22;15.70;;;14.60;;
6580;SDS011;3324;50.796;7.228;2022-08-05T00:49:47;15.20;;;14.00;;
6580;SDS011;3324;50.796;7.228;2022-08-05T00:52:13;15.20;;;14.20;;
6580;SDS011;3324;50.796;7.228;2022-08-05T00:54:39;15.30;;;14.30;;
6580;SDS011;3324;50.796;7.228;2022-08-05T00:57:04;16.10;;;14.80;;
6580;SDS011;3324;50.796;7.228;2022-08-05T00:59:31;15.20;;;14.20;;
6580;SDS011;3324;50.796;7.228;2022-08-05T01:01:56;15.00;;;14.00;;
6580;SDS011;3324;50.796;7.228;2022-08-05T01:04:22;14.90;;;13.90;;
6580;SDS011;3324;50.796;7.228;2022-08-05T01:06:48;16.60;;;15.00;;
6580;SDS011;3324;50.796;7.228;2022-08-05T01:09:13;14.13;;;13.23;;
6580;SDS011;3324;50.796;7.228;2022-08-05T01:11:39;13.50;;;12.70;;
6580;SDS011;3324;50.796;7.228;2022-08-05T01:14:49;15.70;;;14.20;;
6580;SDS011;3324;50.796;7.228;2022-08-05T01:17:10;14.50;;;13.60;;
6580;SDS011;3324;50.796;7.228;2022-08-05T01:19:46;14.25;;;13.35;;
6580;SDS011;3324;50.796;7.228;2022-08-05T01:33:53;14.38;;;13.27;;
6580;SDS011;3324;50.796;7.228;2022-08-05T01:36:24;14.85;;;13.75;;
6580;SDS011;3324;50.796;7.228;2022-08-05T01:38:56;13.40;;;12.60;;
6580;SDS011;3324;50.796;7.228;2022-08-05T01:41:23;13.20;;;12.40;;
6580;SDS011;3324;50.796;7.228;2022-08-05T01:43:53;12.80;;;12.10;;
6580;SDS011;3324;50.796;7.228;2022-08-05T01:46:20;13.40;;;12.60;;
6580;SDS011;3324;50.796;7.228;2022-08-05T01:48:47;14.10;;;13.20;;
6580;SDS011;3324;50.796;7.228;2022-08-05T01:51:14;14.10;;;13.20;;
6580;SDS011;3324;50.796;7.228;2022-08-05T01:53:42;15.30;;;14.10;;
6580;SDS011;3324;50.796;7.228;2022-08-05T01:56:10;14.00;;;13.10;;
6580;SDS011;3324;50.796;7.228;2022-08-05T01:58:39;14.10;;;13.20;;
6580;SDS011;3324;50.796;7.228;2022-08-05T02:01:06;14.40;;;13.50;;
6580;SDS011;3324;50.796;7.228;2022-08-05T02:03:35;14.05;;;13.15;;
6580;SDS011;3324;50.796;7.228;2022-08-05T02:06:04;15.35;;;14.15;;
6580;SDS011;3324;50.796;7.228;2022-08-05T02:08:32;14.85;;;13.85;;
6580;SDS011;3324;50.796;7.228;2022-08-05T02:11:01;15.20;;;14.20;;
6580;SDS011;3324;50.796;7.228;2022-08-05T02:13:41;14.40;;;13.50;;
6580;SDS011;3324;50.796;7.228;2022-08-05T02:18:49;14.20;;;13.30;;
6580;SDS011;3324;50.796;7.228;2022-08-05T02:21:29;14.33;;;13.43;;
6580;SDS011;3324;50.796;7.228;2022-08-05T02:24:03;14.15;;;13.25;;
6580;SDS011;3324;50.796;7.228;2022-08-05T02:26:34;14.90;;;13.90;;
6580;SDS011;3324;50.796;7.228;2022-08-05T02:29:04;13.70;;;12.90;;
6580;SDS011;3324;50.796;7.228;2022-08-05T02:31:31;13.83;;;12.93;;
6580;SDS011;3324;50.796;7.228;2022-08-05T02:34:08;14.80;;;13.70;;
6580;SDS011;3324;50.796;7.228;2022-08-05T02:36:37;13.50;;;12.70;;
6580;SDS011;3324;50.796;7.228;2022-08-05T02:39:06;13.30;;;12.50;;
6580;SDS011;3324;50.796;7.228;2022-08-05T02:41:34;13.80;;;12.80;;
6580;SDS011;3324;50.796;7.228;2022-08-05T02:44:00;13.87;;;12.87;;
6580;SDS011;3324;50.796;7.228;2022-08-05T02:46:27;13.80;;;12.80;;
6580;SDS011;3324;50.796;7.228;2022-08-05T02:48:53;13.40;;;12.50;;
6580;SDS011;3324;50.796;7.228;2022-08-05T02:51:20;14.35;;;12.95;;
6580;SDS011;3324;50.796;7.228;2022-08-05T02:53:46;12.87;;;12.17;;
6580;SDS011;3324;50.796;7.228;2022-08-05T02:56:13;12.87;;;12.17;;
6580;SDS011;3324;50.796;7.228;2022-08-05T02:58:40;13.80;;;12.80;;
6580;SDS011;3324;50.796;7.228;2022-08-05T03:01:16;13.20;;;12.40;;
6580;SDS011;3324;50.796;7.228;2022-08-05T03:03:43;13.40;;;12.60;;
6580;SDS011;3324;50.796;7.228;2022-08-05T03:06:13;13.10;;;12.30;;
6580;SDS011;3324;50.796;7.228;2022-08-05T03:08:40;12.90;;;12.20;;
6580;SDS011;3324;50.796;7.228;2022-08-05T03:11:19;12.90;;;12.20;;
6580;SDS011;3324;50.796;7.228;2022-08-05T03:13:50;14.20;;;13.20;;
6580;SDS011;3324;50.796;7.228;2022-08-05T03:16:16;13.60;;;12.60;;
6580;SDS011;3324;50.796;7.228;2022-08-05T03:18:42;13.00;;;12.30;;
6580;SDS011;3324;50.796;7.228;2022-08-05T03:21:08;12.70;;;12.00;;
6580;SDS011;3324;50.796;7.228;2022-08-05T03:23:34;12.70;;;12.00;;
6580;SDS011;3324;50.796;7.228;2022-08-05T03:26:02;12.20;;;11.60;;
6580;SDS011;3324;50.796;7.228;2022-08-05T03:28:28;12.70;;;12.00;;
6580;SDS011;3324;50.796;7.228;2022-08-05T03:30:55;11.80;;;11.20;;
6580;SDS011;3324;50.796;7.228;2022-08-05T03:33:22;11.00;;;10.50;;
6580;SDS011;3324;50.796;7.228;2022-08-05T03:38:14;11.80;;;11.20;;
6580;SDS011;3324;50.796;7.228;2022-08-05T03:40:41;11.50;;;10.90;;
6580;SDS011;3324;50.796;7.228;2022-08-05T03:43:08;11.20;;;10.70;;
6580;SDS011;3324;50.796;7.228;2022-08-05T03:45:33;12.40;;;11.70;;
6580;SDS011;3324;50.796;7.228;2022-08-05T03:47:59;11.95;;;11.35;;
6580;SDS011;3324;50.796;7.228;2022-08-05T03:50:40;12.40;;;11.60;;
6580;SDS011;3324;50.796;7.228;2022-08-05T03:55:49;12.07;;;11.47;;
6580;SDS011;3324;50.796;7.228;2022-08-05T03:58:21;12.60;;;11.80;;
6580;SDS011;3324;50.796;7.228;2022-08-05T04:00:48;11.80;;;11.20;;
6580;SDS011;3324;50.796;7.228;2022-08-05T04:05:44;12.40;;;11.60;;
6580;SDS011;3324;50.796;7.228;2022-08-05T04:08:10;11.85;;;11.25;;
6580;SDS011;3324;50.796;7.228;2022-08-05T04:10:37;12.50;;;11.70;;
6580;SDS011;3324;50.796;7.228;2022-08-05T04:17:55;11.80;;;11.20;;
6580;SDS011;3324;50.796;7.228;2022-08-05T04:20:21;11.70;;;11.10;;
6580;SDS011;3324;50.796;7.228;2022-08-05T04:22:47;11.90;;;11.30;;
6580;SDS011;3324;50.796;7.228;2022-08-05T04:25:13;12.40;;;11.60;;
6580;SDS011;3324;50.796;7.228;2022-08-05T04:27:39;12.50;;;11.70;;
6580;SDS011;3324;50.796;7.228;2022-08-05T04:30:05;12.10;;;11.50;;
6580;SDS011;3324;50.796;7.228;2022-08-05T04:32:32;12.00;;;11.40;;
6580;SDS011;3324;50.796;7.228;2022-08-05T04:34:58;11.90;;;11.30;;
6580;SDS011;3324;50.796;7.228;2022-08-05T04:37:23;11.90;;;11.30;;
6580;SDS011;3324;50.796;7.228;2022-08-05T04:39:49;12.17;;;11.37;;
6580;SDS011;3324;50.796;7.228;2022-08-05T04:44:40;11.50;;;10.90;;
6580;SDS011;3324;50.796;7.228;2022-08-05T04:47:06;13.40;;;12.10;;
6580;SDS011;3324;50.796;7.228;2022-08-05T04:49:31;11.77;;;11.17;;
6580;SDS011;3324;50.796;7.228;2022-08-05T04:51:57;11.70;;;11.10;;
6580;SDS011;3324;50.796;7.228;2022-08-05T04:56:51;11.80;;;11.20;;
6580;SDS011;3324;50.796;7.228;2022-08-05T04:59:17;11.40;;;10.80;;
6580;SDS011;3324;50.796;7.228;2022-08-05T05:01:44;11.80;;;11.20;;
6580;SDS011;3324;50.796;7.228;2022-08-05T05:04:10;12.00;;;11.40;;
6580;SDS011;3324;50.796;7.228;2022-08-05T05:06:36;12.90;;;12.00;;
6580;SDS011;3324;50.796;7.228;2022-08-05T05:09:02;11.80;;;11.20;;
6580;SDS011;3324;50.796;7.228;2022-08-05T05:11:28;12.10;;;11.50;;
6580;SDS011;3324;50.796;7.228;2022-08-05T05:13:53;12.40;;;11.70;;
6580;SDS011;3324;50.796;7.228;2022-08-05T05:16:19;13.52;;;12.60;;
6580;SDS011;3324;50.796;7.228;2022-08-05T05:18:44;12.90;;;12.20;;
6580;SDS011;3324;50.796;7.228;2022-08-05T05:21:10;12.90;;;12.20;;
6580;SDS011;3324;50.796;7.228;2022-08-05T05:23:36;13.98;;;12.68;;
6580;SDS011;3324;50.796;7.228;2022-08-05T05:26:01;12.00;;;11.40;;
6580;SDS011;3324;50.796;7.228;2022-08-05T05:28:27;12.10;;;11.50;;
6580;SDS011;3324;50.796;7.228;2022-08-05T05:30:52;13.75;;;12.75;;
6580;SDS011;3324;50.796;7.228;2022-08-05T05:33:18;11.80;;;11.20;;
6580;SDS011;3324;50.796;7.228;2022-08-05T05:35:44;12.30;;;11.60;;
6580;SDS011;3324;50.796;7.228;2022-08-05T05:38:10;12.00;;;11.40;;
6580;SDS011;3324;50.796;7.228;2022-08-05T05:40:36;12.40;;;11.70;;
6580;SDS011;3324;50.796;7.228;2022-08-05T05:43:02;12.80;;;11.90;;
6580;SDS011;3324;50.796;7.228;2022-08-05T05:45:28;12.10;;;11.50;;
6580;SDS011;3324;50.796;7.228;2022-08-05T05:47:53;12.30;;;11.60;;
6580;SDS011;3324;50.796;7.228;2022-08-05T05:50:21;12.30;;;11.60;;
6580;SDS011;3324;50.796;7.228;2022-08-05T05:52:47;12.10;;;11.50;;
6580;SDS011;3324;50.796;7.228;2022-08-05T05:55:13;12.20;;;11.50;;
6580;SDS011;3324;50.796;7.228;2022-08-05T05:57:40;12.37;;;11.67;;
6580;SDS011;3324;50.796;7.228;2022-08-05T06:00:08;12.50;;;11.80;;
6580;SDS011;3324;50.796;7.228;2022-08-05T06:02:41;12.90;;;12.00;;
6580;SDS011;3324;50.796;7.228;2022-08-05T06:05:07;12.40;;;11.70;;
6580;SDS011;3324;50.796;7.228;2022-08-05T06:07:34;13.30;;;12.40;;
6580;SDS011;3324;50.796;7.228;2022-08-05T06:10:00;12.50;;;11.80;;
6580;SDS011;3324;50.796;7.228;2022-08-05T06:12:26;12.40;;;11.70;;
6580;SDS011;3324;50.796;7.228;2022-08-05T06:14:52;12.40;;;11.70;;
6580;SDS011;3324;50.796;7.228;2022-08-05T06:19:43;11.63;;;11.03;;
6580;SDS011;3324;50.796;7.228;2022-08-05T06:22:08;12.10;;;11.50;;
6580;SDS011;3324;50.796;7.228;2022-08-05T06:27:04;12.10;;;11.50;;
6580;SDS011;3324;50.796;7.228;2022-08-05T06:29:30;13.20;;;12.30;;
6580;SDS011;3324;50.796;7.228;2022-08-05T06:31:56;12.40;;;11.70;;
6580;SDS011;3324;50.796;7.228;2022-08-05T06:34:21;12.50;;;11.80;;
6580;SDS011;3324;50.796;7.228;2022-08-05T06:36:47;13.30;;;12.40;;
6580;SDS011;3324;50.796;7.228;2022-08-05T06:39:13;12.60;;;11.90;;
6580;SDS011;3324;50.796;7.228;2022-08-05T06:41:39;12.60;;;11.90;;
6580;SDS011;3324;50.796;7.228;2022-08-05T06:44:04;12.90;;;12.20;;
6580;SDS011;3324;50.796;7.228;2022-08-05T06:46:30;12.85;;;12.15;;
6580;SDS011;3324;50.796;7.228;2022-08-05T06:48:56;12.90;;;12.20;;
6580;SDS011;3324;50.796;7.228;2022-08-05T06:51:22;12.60;;;11.90;;
6580;SDS011;3324;50.796;7.228;2022-08-05T06:53:48;13.90;;;13.10;;
6580;SDS011;3324;50.796;7.228;2022-08-05T06:56:14;14.40;;;13.00;;
6580;SDS011;3324;50.796;7.228;2022-08-05T06:58:39;12.80;;;12.10;;
6580;SDS011;3324;50.796;7.228;2022-08-05T07:01:05;12.90;;;12.20;;
6580;SDS011;3324;50.796;7.228;2022-08-05T07:03:31;13.77;;;12.77;;
6580;SDS011;3324;50.796;7.228;2022-08-05T07:05:57;12.90;;;12.20;;
6580;SDS011;3324;50.796;7.228;2022-08-05T07:08:23;12.60;;;11.90;;
6580;SDS011;3324;50.796;7.228;2022-08-05T07:10:52;12.60;;;11.90;;
6580;SDS011;3324;50.796;7.228;2022-08-05T07:13:18;12.70;;;12.00;;
6580;SDS011;3324;50.796;7.228;2022-08-05T07:16:02;12.30;;;11.60;;
6580;SDS011;3324;50.796;7.228;2022-08-05T07:18:47;13.00;;;12.10;;
6580;SDS011;3324;50.796;7.228;2022-08-05T07:21:12;13.40;;;12.50;;
6580;SDS011;3324;50.796;7.228;2022-08-05T07:23:38;12.60;;;11.90;;
6580;SDS011;3324;50.796;7.228;2022-08-05T07:26:03;12.10;;;11.50;;
6580;SDS011;3324;50.796;7.228;2022-08-05T07:28:29;13.20;;;12.30;;
6580;SDS011;3324;50.796;7.228;2022-08-05T07:30:55;12.60;;;11.90;;
6580;SDS011;3324;50.796;7.228;2022-08-05T07:33:21;12.40;;;11.70;;
6580;SDS011;3324;50.796;7.228;2022-08-05T07:35:46;12.95;;;12.05;;
6580;SDS011;3324;50.796;7.228;2022-08-05T07:38:16;13.50;;;12.70;;
6580;SDS011;3324;50.796;7.228;2022-08-05T07:40:42;12.55;;;11.85;;
6580;SDS011;3324;50.796;7.228;2022-08-05T07:43:09;12.80;;;12.10;;
6580;SDS011;3324;50.796;7.228;2022-08-05T07:45:34;12.30;;;11.60;;
6580;SDS011;3324;50.796;7.228;2022-08-05T07:48:00;12.00;;;11.40;;
6580;SDS011;3324;50.796;7.228;2022-08-05T07:50:26;12.90;;;12.00;;
6580;SDS011;3324;50.796;7.228;2022-08-05T07:52:52;12.40;;;11.70;;
6580;SDS011;3324;50.796;7.228;2022-08-05T07:55:17;12.38;;;11.68;;
6580;SDS011;3324;50.796;7.228;2022-08-05T07:57:43;13.20;;;12.30;;
6580;SDS011;3324;50.796;7.228;2022-08-05T08:00:08;12.60;;;11.90;;
6580;SDS011;3324;50.796;7.228;2022-08-05T08:02:35;12.70;;;12.00;;
6580;SDS011;3324;50.796;7.228;2022-08-05T08:05:00;12.50;;;11.80;;
6580;SDS011;3324;50.796;7.228;2022-08-05T08:07:26;13.40;;;12.50;;
6580;SDS011;3324;50.796;7.228;2022-08-05T08:09:52;12.30;;;11.60;;
6580;SDS011;3324;50.796;7.228;2022-08-05T08:12:18;12.43;;;11.73;;
6580;SDS011;3324;50.796;7.228;2022-08-05T08:14:44;13.30;;;12.50;;
6580;SDS011;3324;50.796;7.228;2022-08-05T08:17:10;14.20;;;13.20;;
6580;SDS011;3324;50.796;7.228;2022-08-05T08:19:36;13.30;;;12.50;;
6580;SDS011;3324;50.796;7.228;2022-08-05T08:22:02;12.38;;;11.68;;
6580;SDS011;3324;50.796;7.228;2022-08-05T08:24:28;12.70;;;12.00;;
6580;SDS011;3324;50.796;7.228;2022-08-05T08:26:55;11.80;;;11.20;;
6580;SDS011;3324;50.796;7.228;2022-08-05T08:29:20;11.70;;;11.10;;
6580;SDS011;3324;50.796;7.228;2022-08-05T08:31:46;13.10;;;12.20;;
6580;SDS011;3324;50.796;7.228;2022-08-05T08:34:12;12.40;;;11.70;;
6580;SDS011;3324;50.796;7.228;2022-08-05T08:36:38;12.40;;;11.70;;
6580;SDS011;3324;50.796;7.228;2022-08-05T08:39:04;12.10;;;11.50;;
6580;SDS011;3324;50.796;7.228;2022-08-05T08:41:32;13.90;;;12.60;;
6580;SDS011;3324;50.796;7.228;2022-08-05T08:43:58;12.40;;;11.70;;
6580;SDS011;3324;50.796;7.228;2022-08-05T08:46:26;12.30;;;11.60;;
6580;SDS011;3324;50.796;7.228;2022-08-05T08:48:55;12.30;;;11.60;;
6580;SDS011;3324;50.796;7.228;2022-08-05T08:51:22;12.60;;;11.90;;
6580;SDS011;3324;50.796;7.228;2022-08-05T08:53:51;12.55;;;11.85;;
6580;SDS011;3324;50.796;7.228;2022-08-05T08:56:17;12.70;;;12.00;;
6580;SDS011;3324;50.796;7.228;2022-08-05T08:58:45;12.43;;;11.73;;
6580;SDS011;3324;50.796;7.228;2022-08-05T09:01:11;12.85;;;12.15;;
6580;SDS011;3324;50.796;7.228;2022-08-05T09:03:37;12.80;;;12.10;;
6580;SDS011;3324;50.796;7.228;2022-08-05T09:06:05;13.70;;;12.70;;
6580;SDS011;3324;50.796;7.228;2022-08-05T09:08:31;13.40;;;12.60;;
6580;SDS011;3324;50.796;7.228;2022-08-05T09:10:57;13.30;;;12.50;;
6580;SDS011;3324;50.796;7.228;2022-08-05T09:13:23;13.00;;;12.30;;
6580;SDS011;3324;50.796;7.228;2022-08-05T09:15:49;14.60;;;13.20;;
6580;SDS011;3324;50.796;7.228;2022-08-05T09:18:15;13.95;;;12.95;;
6580;SDS011;3324;50.796;7.228;2022-08-05T09:20:42;14.00;;;13.00;;
6580;SDS011;3324;50.796;7.228;2022-08-05T09:25:37;13.70;;;12.70;;
6580;SDS011;3324;50.796;7.228;2022-08-05T09:28:25;13.20;;;12.40;;
6580;SDS011;3324;50.796;7.228;2022-08-05T09:33:21;13.57;;;12.77;;
6580;SDS011;3324;50.796;7.228;2022-08-05T09:36:01;13.50;;;12.70;;
6580;SDS011;3324;50.796;7.228;2022-08-05T09:38:29;13.20;;;12.40;;
6580;SDS011;3324;50.796;7.228;2022-08-05T09:41:02;13.15;;;12.35;;
6580;SDS011;3324;50.796;7.228;2022-08-05T09:43:37;13.20;;;12.40;;
6580;SDS011;3324;50.796;7.228;2022-08-05T09:46:04;12.80;;;12.10;;
6580;SDS011;3324;50.796;7.228;2022-08-05T09:48:35;13.25;;;12.45;;
6580;SDS011;3324;50.796;7.228;2022-08-05T09:51:03;13.30;;;12.50;;
6580;SDS011;3324;50.796;7.228;2022-08-05T09:53:45;14.40;;;13.40;;
6580;SDS011;3324;50.796;7.228;2022-08-05T09:56:36;13.50;;;12.70;;
6580;SDS011;3324;50.796;7.228;2022-08-05T09:59:08;13.90;;;12.90;;
6580;SDS011;3324;50.796;7.228;2022-08-05T10:01:36;14.60;;;13.20;;
6580;SDS011;3324;50.796;7.228;2022-08-05T10:04:10;14.90;;;13.50;;
6580;SDS011;3324;50.796;7.228;2022-08-05T10:06:56;13.30;;;12.50;;
6580;SDS011;3324;50.796;7.228;2022-08-05T10:09:22;14.10;;;13.20;;
6580;SDS011;3324;50.796;7.228;2022-08-05T10:11:48;14.50;;;13.60;;
6580;SDS011;3324;50.796;7.228;2022-08-05T10:14:23;14.90;;;13.80;;
6580;SDS011;3324;50.796;7.228;2022-08-05T10:16:54;14.20;;;13.30;;
6580;SDS011;3324;50.796;7.228;2022-08-05T10:19:24;14.20;;;13.30;;
6580;SDS011;3324;50.796;7.228;2022-08-05T10:21:50;13.40;;;12.60;;
6580;SDS011;3324;50.796;7.228;2022-08-05T10:24:17;13.70;;;12.90;;
6580;SDS011;3324;50.796;7.228;2022-08-05T10:26:45;13.70;;;12.90;;
6580;SDS011;3324;50.796;7.228;2022-08-05T10:29:13;13.60;;;12.80;;
6580;SDS011;3324;50.796;7.228;2022-08-05T10:31:38;13.60;;;12.80;;
6580;SDS011;3324;50.796;7.228;2022-08-05T10:34:08;12.50;;;11.80;;
6580;SDS011;3324;50.796;7.228;2022-08-05T10:36:35;13.40;;;12.50;;
6580;SDS011;3324;50.796;7.228;2022-08-05T10:39:31;12.50;;;11.80;;
6580;SDS011;3324;50.796;7.228;2022-08-05T10:42:01;12.70;;;12.00;;
6580;SDS011;3324;50.796;7.228;2022-08-05T10:44:31;12.60;;;11.90;;
6580;SDS011;3324;50.796;7.228;2022-08-05T10:46:58;12.65;;;11.95;;
6580;SDS011;3324;50.796;7.228;2022-08-05T10:49:35;13.25;;;12.35;;
6580;SDS011;3324;50.796;7.228;2022-08-05T10:55:23;12.80;;;12.10;;
6580;SDS011;3324;50.796;7.228;2022-08-05T10:58:06;12.70;;;12.00;;
6580;SDS011;3324;50.796;7.228;2022-08-05T11:00:33;12.55;;;11.75;;
6580;SDS011;3324;50.796;7.228;2022-08-05T11:05:28;11.75;;;11.15;;
6580;SDS011;3324;50.796;7.228;2022-08-05T11:07:54;12.15;;;11.55;;
6580;SDS011;3324;50.796;7.228;2022-08-05T11:10:22;12.00;;;11.40;;
6580;SDS011;3324;50.796;7.228;2022-08-05T11:12:49;12.85;;;11.95;;
6580;SDS011;3324;50.796;7.228;2022-08-05T11:17:42;11.70;;;11.10;;
6580;SDS011;3324;50.796;7.228;2022-08-05T11:26:04;11.60;;;11.00;;
6580;SDS011;3324;50.796;7.228;2022-08-05T11:35:58;11.00;;;10.50;;
6580;SDS011;3324;50.796;7.228;2022-08-05T11:41:07;10.80;;;10.30;;
6580;SDS011;3324;50.796;7.228;2022-08-05T11:44:01;11.30;;;10.80;;
6580;SDS011;3324;50.796;7.228;2022-08-05T11:47:09;11.30;;;10.80;;
6580;SDS011;3324;50.796;7.228;2022-08-05T11:49:18;11.43;;;10.73;;
6580;SDS011;3324;50.796;7.228;2022-08-05T11:51:46;12.20;;;11.60;;
6580;SDS011;3324;50.796;7.228;2022-08-05T11:54:19;10.90;;;10.40;;
6580;SDS011;3324;50.796;7.228;2022-08-05T11:56:58;11.50;;;11.00;;
6580;SDS011;3324;50.796;7.228;2022-08-05T11:59:28;12.10;;;11.50;;
6580;SDS011;3324;50.796;7.228;2022-08-05T12:04:25;11.20;;;10.70;;
6580;SDS011;3324;50.796;7.228;2022-08-05T12:06:53;13.27;;;12.38;;
6580;SDS011;3324;50.796;7.228;2022-08-05T12:09:23;11.80;;;11.20;;
6580;SDS011;3324;50.796;7.228;2022-08-05T12:11:51;11.60;;;11.00;;
6580;SDS011;3324;50.796;7.228;2022-08-05T12:14:17;11.93;;;11.32;;
6580;SDS011;3324;50.796;7.228;2022-08-05T12:16:43;12.50;;;11.80;;
6580;SDS011;3324;50.796;7.228;2022-08-05T12:19:11;12.20;;;11.50;;
6580;SDS011;3324;50.796;7.228;2022-08-05T12:21:42;12.50;;;11.80;;
6580;SDS011;3324;50.796;7.228;2022-08-05T12:24:14;11.60;;;11.00;;
6580;SDS011;3324;50.796;7.228;2022-08-05T12:26:48;12.40;;;11.60;;
6580;SDS011;3324;50.796;7.228;2022-08-05T12:31:45;12.10;;;11.50;;
6580;SDS011;3324;50.796;7.228;2022-08-05T12:34:15;12.65;;;11.95;;
6580;SDS011;3324;50.796;7.228;2022-08-05T12:36:43;12.90;;;12.20;;
6580;SDS011;3324;50.796;7.228;2022-08-05T12:39:10;12.40;;;11.70;;
6580;SDS011;3324;50.796;7.228;2022-08-05T12:41:37;13.20;;;12.40;;
6580;SDS011;3324;50.796;7.228;2022-08-05T12:44:05;13.50;;;12.70;;
6580;SDS011;3324;50.796;7.228;2022-08-05T12:46:36;13.50;;;12.70;;
6580;SDS011;3324;50.796;7.228;2022-08-05T12:51:49;13.50;;;12.70;;
6580;SDS011;3324;50.796;7.228;2022-08-05T12:54:34;14.30;;;13.40;;
6580;SDS011;3324;50.796;7.228;2022-08-05T12:57:01;15.50;;;14.30;;
6580;SDS011;3324;50.796;7.228;2022-08-05T12:59:32;14.90;;;13.90;;
6580;SDS011;3324;50.796;7.228;2022-08-05T13:02:07;15.70;;;14.60;;
6580;SDS011;3324;50.796;7.228;2022-08-05T13:04:35;15.75;;;14.65;;
6580;SDS011;3324;50.796;7.228;2022-08-05T13:07:05;16.20;;;14.90;;
6580;SDS011;3324;50.796;7.228;2022-08-05T13:09:37;13.80;;;12.90;;
6580;SDS011;3324;50.796;7.228;2022-08-05T13:12:09;15.30;;;14.20;;
6580;SDS011;3324;50.796;7.228;2022-08-05T13:14:37;16.30;;;15.10;;
6580;SDS011;3324;50.796;7.228;2022-08-05T13:22:42;16.80;;;15.50;;
6580;SDS011;3324;50.796;7.228;2022-08-05T13:25:15;18.80;;;16.90;;
6580;SDS011;3324;50.796;7.228;2022-08-05T13:27:42;18.00;;;16.40;;
6580;SDS011;3324;50.796;7.228;2022-08-05T13:30:12;17.17;;;15.87;;
6580;SDS011;3324;50.796;7.228;2022-08-05T13:32:40;16.67;;;15.37;;
6580;SDS011;3324;50.796;7.228;2022-08-05T13:35:06;15.75;;;14.65;;
6580;SDS011;3324;50.796;7.228;2022-08-05T13:37:33;16.30;;;15.10;;
6580;SDS011;3324;50.796;7.228;2022-08-05T13:39:59;14.80;;;13.80;;
6580;SDS011;3324;50.796;7.228;2022-08-05T13:42:24;16.30;;;15.10;;
6580;SDS011;3324;50.796;7.228;2022-08-05T13:44:51;18.05;;;16.25;;
6580;SDS011;3324;50.796;7.228;2022-08-05T13:47:18;16.50;;;15.10;;
6580;SDS011;3324;50.796;7.228;2022-08-05T13:49:44;16.60;;;15.20;;
6580;SDS011;3324;50.796;7.228;2022-08-05T13:52:17;16.20;;;15.10;;
6580;SDS011;3324;50.796;7.228;2022-08-05T13:54:46;16.50;;;15.30;;
6580;SDS011;3324;50.796;7.228;2022-08-05T13:57:12;15.20;;;14.20;;
6580;SDS011;3324;50.796;7.228;2022-08-05T13:59:40;15.57;;;14.47;;
6580;SDS011;3324;50.796;7.228;2022-08-05T14:02:09;15.40;;;14.30;;
6580;SDS011;3324;50.796;7.228;2022-08-05T14:04:37;15.20;;;14.20;;
6580;SDS011;3324;50.796;7.228;2022-08-05T14:07:30;16.40;;;15.20;;
6580;SDS011;3324;50.796;7.228;2022-08-05T14:09:57;17.57;;;15.77;;
6580;SDS011;3324;50.796;7.228;2022-08-05T14:12:23;15.40;;;14.30;;
6580;SDS011;3324;50.796;7.228;2022-08-05T14:14:49;15.90;;;14.80;;
6580;SDS011;3324;50.796;7.228;2022-08-05T14:17:14;16.60;;;15.40;;
6580;SDS011;3324;50.796;7.228;2022-08-05T14:19:40;17.80;;;16.10;;
6580;SDS011;3324;50.796;7.228;2022-08-05T14:22:07;16.00;;;14.90;;
6580;SDS011;3324;50.796;7.228;2022-08-05T14:24:32;15.53;;;14.43;;
6580;SDS011;3324;50.796;7.228;2022-08-05T14:26:58;16.30;;;15.10;;
6580;SDS011;3324;50.796;7.228;2022-08-05T14:29:24;16.30;;;15.00;;
6580;SDS011;3324;50.796;7.228;2022-08-05T14:31:49;15.70;;;14.60;;
6580;SDS011;3324;50.796;7.228;2022-08-05T14:34:15;16.60;;;15.40;;
6580;SDS011;3324;50.796;7.228;2022-08-05T14:36:41;17.30;;;15.80;;
6580;SDS011;3324;50.796;7.228;2022-08-05T14:39:06;15.45;;;14.35;;
6580;SDS011;3324;50.796;7.228;2022-08-05T14:41:32;15.90;;;14.60;;
6580;SDS011;3324;50.796;7.228;2022-08-05T14:43:58;15.70;;;14.60;;
6580;SDS011;3324;50.796;7.228;2022-08-05T14:46:24;16.73;;;15.53;;
6580;SDS011;3324;50.796;7.228;2022-08-05T14:48:52;16.70;;;15.40;;
6580;SDS011;3324;50.796;7.228;2022-08-05T14:51:17;17.15;;;15.85;;
6580;SDS011;3324;50.796;7.228;2022-08-05T14:53:43;17.30;;;16.00;;
6580;SDS011;3324;50.796;7.228;2022-08-05T14:56:09;18.13;;;16.53;;
6580;SDS011;3324;50.796;7.228;2022-08-05T14:58:35;17.10;;;15.80;;
6580;SDS011;3324;50.796;7.228;2022-08-05T15:01:01;17.20;;;15.90;;
6580;SDS011;3324;50.796;7.228;2022-08-05T15:03:27;18.40;;;16.50;;
6580;SDS011;3324;50.796;7.228;2022-08-05T15:05:53;17.40;;;15.90;;
6580;SDS011;3324;50.796;7.228;2022-08-05T15:08:18;16.80;;;15.50;;
6580;SDS011;3324;50.796;7.228;2022-08-05T15:10:44;16.90;;;15.60;;
6580;SDS011;3324;50.796;7.228;2022-08-05T15:13:10;17.40;;;15.90;;
6580;SDS011;3324;50.796;7.228;2022-08-05T15:15:35;17.20;;;15.90;;
6580;SDS011;3324;50.796;7.228;2022-08-05T15:18:01;15.80;;;14.70;;
6580;SDS011;3324;50.796;7.228;2022-08-05T15:20:27;16.10;;;14.90;;
6580;SDS011;3324;50.796;7.228;2022-08-05T15:22:52;15.33;;;14.23;;
6580;SDS011;3324;50.796;7.228;2022-08-05T15:25:18;15.80;;;14.70;;
6580;SDS011;3324;50.796;7.228;2022-08-05T15:27:44;16.30;;;15.10;;
6580;SDS011;3324;50.796;7.228;2022-08-05T15:30:10;16.20;;;15.10;;
6580;SDS011;3324;50.796;7.228;2022-08-05T15:32:36;16.10;;;15.00;;
6580;SDS011;3324;50.796;7.228;2022-08-05T15:35:02;16.23;;;14.93;;
6580;SDS011;3324;50.796;7.228;2022-08-05T15:37:28;16.00;;;14.90;;
6580;SDS011;3324;50.796;7.228;2022-08-05T15:39:54;15.55;;;14.45;;
6580;SDS011;3324;50.796;7.228;2022-08-05T15:42:21;16.10;;;15.00;;
6580;SDS011;3324;50.796;7.228;2022-08-05T15:44:48;15.63;;;14.53;;
6580;SDS011;3324;50.796;7.228;2022-08-05T15:47:14;16.00;;;14.90;;
6580;SDS011;3324;50.796;7.228;2022-08-05T15:49:40;15.70;;;14.60;;
6580;SDS011;3324;50.796;7.228;2022-08-05T15:52:05;16.10;;;14.80;;
6580;SDS011;3324;50.796;7.228;2022-08-05T15:54:31;15.00;;;14.00;;
6580;SDS011;3324;50.796;7.228;2022-08-05T15:56:57;16.30;;;15.10;;
6580;SDS011;3324;50.796;7.228;2022-08-05T15:59:23;15.60;;;14.50;;
6580;SDS011;3324;50.796;7.228;2022-08-05T16:01:51;16.60;;;15.20;;
6580;SDS011;3324;50.796;7.228;2022-08-05T16:04:17;15.63;;;14.53;;
6580;SDS011;3324;50.796;7.228;2022-08-05T16:06:43;17.50;;;15.70;;
6580;SDS011;3324;50.796;7.228;2022-08-05T16:09:10;15.90;;;14.80;;
6580;SDS011;3324;50.796;7.228;2022-08-05T16:11:36;16.90;;;15.50;;